map of KODX home
KODX - Airport
Location
City:  Ord, Nebraska, United States
Name:Evelyn Sharp Field
ICAO:KODX
FAA LID:ODX

Details
Type:Airport (Airfield)
Use:Public/Civil
Latitude:4137'25"N (41.623694)
Longitude:9857'07"W (-98.951860)
Datum:WGS 1984
Elevation:2070 ft (631 m)
Variation:4.61E (WMM2015v2 magnetic declination)
-0.08 annual change
Runways:2
Longest:4721 × 75 ft (1439 × 23 m), paved

Time
Time Zone:UTC-6 (DST-5)
Local Time:

Weather
METAR:KODX 041353Z AUTO 34017G22KT 10SM CLR M14/M19 A2999 RMK AO2 PK WND 34027/1324 SLP192 T11441189

Related Locations
Nearby:
Farthest:RRG: 10605 mi / 17067 km
Plaine Corail [Sir Gatan Duval Airport (Plaine Corail Airport)], Rodrigues Island, MU

Find:

   beyond  
but within

Other Information
Maps:
NOTAMs:
Links:
Sources:

  
  • flag of United States
  • flag of Nebraska
  

Sectional Chart

Flight Planning
at skyvector.com

Satellite Image

Google Maps Satellite view

 

Copyright © 2004-2019 Karl L. Swartz. All rights reserved.
The Great Circle Mapper name and logo are trademarks of the Great Circle Mapper.
All other trademarks mentioned herein belong to their respective owners.
Please see credits for attibutions and further copyright information.

  Follow gcmap on Facebook Follow gcmap on Twitter GCmap on LinkedIn

hCard Microformat

Geo Microformat